Time,TemperatureF,DewpointF,PressureIn,WindDirection,WindDirectionDegrees,WindSpeedMPH,WindSpeedGustMPH,Humidity,HourlyPrecipIn,Conditions,Clouds,dailyrainin,SoftwareType,DateUTC
2013-01-10 00:00:00,55.8,50.1,30.07,South,183,2.0,6.0,81,0.00,,---,0.00,VWS V14.00,2013-01-10 08:00:00,
2013-01-10 00:30:00,55.8,50.1,30.06,South,173,3.0,6.0,81,0.00,,---,0.00,VWS V14.00,2013-01-10 08:30:00,
2013-01-10 01:00:00,55.7,50.0,30.05,SSE,165,2.0,4.0,81,0.00,,---,0.00,VWS V14.00,2013-01-10 09:00:00,
2013-01-10 01:30:00,55.8,49.7,30.05,South,180,3.0,7.0,80,0.00,,---,0.00,VWS V14.00,2013-01-10 09:30:00,
2013-01-10 02:00:00,55.8,50.1,30.06,South,178,3.0,4.0,81,0.00,,---,0.00,VWS V14.00,2013-01-10 10:00:00,
2013-01-10 02:30:00,55.7,49.3,30.05,South,178,2.0,4.0,79,0.00,,---,0.00,VWS V14.00,2013-01-10 10:30:00,
2013-01-10 03:00:00,55.8,48.4,30.04,South,180,3.0,5.0,76,0.00,,---,0.00,VWS V14.00,2013-01-10 11:00:00,
2013-01-10 03:30:00,55.6,49.2,30.03,South,171,2.0,5.0,79,0.00,,---,0.00,VWS V14.00,2013-01-10 11:30:00,
2013-01-10 04:00:00,55.2,49.2,30.02,South,182,1.0,6.0,80,0.00,,---,0.00,VWS V14.00,2013-01-10 12:00:00,
2013-01-10 04:30:00,54.4,50.9,30.02,South,180,0.0,2.0,88,0.00,,---,0.00,VWS V14.00,2013-01-10 12:30:00,
2013-01-10 05:00:00,53.5,50.6,30.01,South,180,0.0,1.0,90,0.01,,---,0.01,VWS V14.00,2013-01-10 13:00:00,
2013-01-10 05:30:00,53.3,50.7,30.01,South,180,0.0,0.0,91,0.01,,---,0.01,VWS V14.00,2013-01-10 13:30:00,
2013-01-10 06:00:00,53.4,50.5,30.01,South,175,0.0,2.0,90,0.01,,---,0.01,VWS V14.00,2013-01-10 14:00:00,
2013-01-10 06:30:00,55.1,51.3,30.01,SE,131,2.0,5.0,87,0.00,,---,0.01,VWS V14.00,2013-01-10 14:30:00,
2013-01-10 07:00:00,54.3,48.9,30.02,West,274,11.0,14.0,82,0.00,,---,0.01,VWS V14.00,2013-01-10 15:00:00,
2013-01-10 07:30:00,54.1,46.0,30.03,West,279,7.0,19.0,74,0.00,,---,0.01,VWS V14.00,2013-01-10 15:30:00,
2013-01-10 08:00:00,53.8,45.4,30.04,West,267,12.0,15.0,73,0.00,,---,0.01,VWS V14.00,2013-01-10 16:00:00,
2013-01-10 08:30:00,53.6,45.2,30.04,West,277,6.0,15.0,73,0.00,,---,0.01,VWS V14.00,2013-01-10 16:30:00,
2013-01-10 09:00:00,53.2,44.4,30.06,East,92,3.0,16.0,72,0.00,,---,0.01,VWS V14.00,2013-01-10 17:00:00,
2013-01-10 09:30:00,53.3,43.8,30.06,WNW,290,5.0,13.0,70,0.00,,---,0.01,VWS V14.00,2013-01-10 17:30:00,
2013-01-10 10:00:00,54.4,43.3,30.05,WNW,290,1.0,13.0,66,0.00,,---,0.01,VWS V14.00,2013-01-10 18:00:00,
2013-01-10 10:30:00,55.5,44.3,30.04,NE,55,4.0,7.0,66,0.00,,---,0.01,VWS V14.00,2013-01-10 18:30:00,
2013-01-10 11:00:00,55.4,45.0,30.02,ESE,113,4.0,7.0,68,0.00,,---,0.01,VWS V14.00,2013-01-10 19:00:00,
2013-01-10 11:30:00,56.0,46.0,30.01,East,95,5.0,13.0,69,0.00,,---,0.01,VWS V14.00,2013-01-10 19:30:00,
2013-01-10 12:00:00,55.3,44.2,29.99,West,276,3.0,10.0,66,0.00,,---,0.01,VWS V14.00,2013-01-10 20:00:00,
2013-01-10 12:30:00,56.2,44.2,29.99,East,101,5.0,14.0,64,0.00,,---,0.01,VWS V14.00,2013-01-10 20:30:00,
2013-01-10 13:00:00,56.7,43.8,29.99,West,279,9.0,15.0,62,0.00,,---,0.01,VWS V14.00,2013-01-10 21:00:00,
2013-01-10 13:30:00,56.1,43.3,29.99,WNW,297,8.0,17.0,62,0.00,,---,0.01,VWS V14.00,2013-01-10 21:30:00,
2013-01-10 14:00:00,57.2,44.3,29.99,NW,304,8.0,15.0,62,0.00,,---,0.01,VWS V14.00,2013-01-10 22:00:00,
2013-01-10 14:30:00,55.6,43.2,29.99,West,271,9.0,19.0,63,0.00,,---,0.01,VWS V14.00,2013-01-10 22:30:00,
2013-01-10 15:00:00,55.0,42.2,30.01,WNW,296,10.0,22.0,62,0.00,,---,0.01,VWS V14.00,2013-01-10 23:00:00,
2013-01-10 15:30:00,54.5,43.0,30.01,WNW,283,11.0,23.0,65,0.00,,---,0.01,VWS V14.00,2013-01-10 23:30:00,
2013-01-10 16:00:00,54.2,43.1,30.01,West,273,15.0,21.0,66,0.00,,---,0.01,VWS V14.00,2013-01-11 00:00:00,
2013-01-10 16:30:00,53.8,43.1,30.01,West,269,10.0,22.0,67,0.00,,---,0.01,VWS V14.00,2013-01-11 00:30:00,
2013-01-10 17:00:00,53.4,43.5,30.01,West,259,19.0,24.0,69,0.00,,---,0.01,VWS V14.00,2013-01-11 01:00:00,
2013-01-10 17:30:00,53.2,42.9,30.02,WNW,283,14.0,22.0,68,0.00,,---,0.01,VWS V14.00,2013-01-11 01:30:00,
2013-01-10 18:00:00,53.2,44.4,30.03,West,277,21.0,23.0,72,0.00,,---,0.01,VWS V14.00,2013-01-11 02:00:00,
2013-01-10 18:30:00,53.1,43.6,30.03,WSW,253,15.0,25.0,70,0.00,,---,0.01,VWS V14.00,2013-01-11 02:30:00,
2013-01-10 19:00:00,53.1,42.1,30.04,West,272,16.0,21.0,66,0.00,,---,0.01,VWS V14.00,2013-01-11 03:00:00,
2013-01-10 19:30:00,51.5,35.4,30.05,WNW,292,7.0,22.0,54,0.00,,---,0.01,VWS V14.00,2013-01-11 03:30:00,
2013-01-10 20:00:00,50.4,35.8,30.07,WNW,287,5.0,11.0,57,0.00,,---,0.01,VWS V14.00,2013-01-11 04:00:00,
2013-01-10 20:30:00,49.5,30.1,30.08,WNW,286,1.0,9.0,47,0.00,,---,0.01,VWS V14.00,2013-01-11 04:30:00,
2013-01-10 21:00:00,49.2,32.8,30.09,West,261,5.0,8.0,53,0.00,,---,0.01,VWS V14.00,2013-01-11 05:00:00,
2013-01-10 21:30:00,49.6,31.2,30.11,NW,307,2.0,12.0,49,0.00,,---,0.01,VWS V14.00,2013-01-11 05:30:00,
2013-01-10 22:00:00,47.9,28.7,30.12,West,281,2.0,8.0,47,0.00,,---,0.01,VWS V14.00,2013-01-11 06:00:00,
2013-01-10 22:30:00,48.1,29.4,30.14,NW,321,0.0,7.0,48,0.00,,---,0.01,VWS V14.00,2013-01-11 06:30:00,
2013-01-10 23:00:00,48.9,34.8,30.14,West,269,9.0,10.0,58,0.00,,---,0.01,VWS V14.00,2013-01-11 07:00:00,
2013-01-10 23:30:00,49.6,35.9,30.15,West,281,7.0,20.0,59,0.00,,---,0.01,VWS V14.00,2013-01-11 07:30:00,